sensor_id;sensor_type;location;lat;lon;timestamp;pressure;altitude;pressure_sealevel;temperature;humidity
74242;BME280;62599;49.146;10.426;2023-04-28T00:01:20;95696.44;;;7.76;81.12
74242;BME280;62599;49.146;10.426;2023-04-28T00:03:46;95695.03;;;7.78;81.09
74242;BME280;62599;49.146;10.426;2023-04-28T00:06:12;95699.28;;;7.79;80.82
74242;BME280;62599;49.146;10.426;2023-04-28T00:08:38;95697.38;;;7.80;80.65
74242;BME280;62599;49.146;10.426;2023-04-28T00:11:08;95687.44;;;7.80;81.09
74242;BME280;62599;49.146;10.426;2023-04-28T00:13:33;95683.69;;;7.81;80.74
74242;BME280;62599;49.146;10.426;2023-04-28T00:15:59;95678.78;;;7.83;80.82
74242;BME280;62599;49.146;10.426;2023-04-28T00:18:24;95673.75;;;7.82;81.03
74242;BME280;62599;49.146;10.426;2023-04-28T00:20:49;95667.59;;;7.81;81.06
74242;BME280;62599;49.146;10.426;2023-04-28T00:23:15;95672.78;;;7.86;81.35
74242;BME280;62599;49.146;10.426;2023-04-28T00:25:41;95670.59;;;7.88;81.40
74242;BME280;62599;49.146;10.426;2023-04-28T00:28:06;95666.31;;;7.87;80.75
74242;BME280;62599;49.146;10.426;2023-04-28T00:30:31;95660.50;;;7.85;81.18
74242;BME280;62599;49.146;10.426;2023-04-28T00:32:57;95657.81;;;7.85;81.22
74242;BME280;62599;49.146;10.426;2023-04-28T00:35:22;95645.81;;;7.83;81.38
74242;BME280;62599;49.146;10.426;2023-04-28T00:37:48;95644.25;;;7.82;81.38
74242;BME280;62599;49.146;10.426;2023-04-28T00:40:13;95643.13;;;7.83;81.41
74242;BME280;62599;49.146;10.426;2023-04-28T00:42:39;95632.25;;;7.79;81.41
74242;BME280;62599;49.146;10.426;2023-04-28T00:45:04;95641.72;;;7.85;81.39
74242;BME280;62599;49.146;10.426;2023-04-28T00:47:35;95637.94;;;7.86;81.93
74242;BME280;62599;49.146;10.426;2023-04-28T00:50:01;95633.34;;;7.87;81.47
74242;BME280;62599;49.146;10.426;2023-04-28T00:52:28;95625.00;;;7.88;82.22
74242;BME280;62599;49.146;10.426;2023-04-28T00:54:54;95614.28;;;7.88;81.70
74242;BME280;62599;49.146;10.426;2023-04-28T00:57:21;95617.44;;;7.90;81.74
74242;BME280;62599;49.146;10.426;2023-04-28T00:59:47;95616.66;;;7.90;82.08
74242;BME280;62599;49.146;10.426;2023-04-28T01:02:13;95623.91;;;7.89;82.08
74242;BME280;62599;49.146;10.426;2023-04-28T01:04:42;95608.78;;;7.85;82.09
74242;BME280;62599;49.146;10.426;2023-04-28T01:07:08;95610.66;;;7.84;82.31
74242;BME280;62599;49.146;10.426;2023-04-28T01:09:34;95616.31;;;7.83;82.52
74242;BME280;62599;49.146;10.426;2023-04-28T01:11:59;95617.59;;;7.85;82.26
74242;BME280;62599;49.146;10.426;2023-04-28T01:14:25;95622.63;;;7.87;82.90
74242;BME280;62599;49.146;10.426;2023-04-28T01:16:52;95610.78;;;7.88;82.99
74242;BME280;62599;49.146;10.426;2023-04-28T01:19:21;95608.13;;;7.88;83.00
74242;BME280;62599;49.146;10.426;2023-04-28T01:21:50;95615.84;;;7.89;83.08
74242;BME280;62599;49.146;10.426;2023-04-28T01:24:15;95607.47;;;7.91;84.39
74242;BME280;62599;49.146;10.426;2023-04-28T01:26:41;95609.53;;;7.94;83.70
74242;BME280;62599;49.146;10.426;2023-04-28T01:29:06;95606.06;;;7.93;83.83
74242;BME280;62599;49.146;10.426;2023-04-28T01:31:32;95613.16;;;7.98;83.77
74242;BME280;62599;49.146;10.426;2023-04-28T01:33:57;95612.88;;;8.00;83.62
74242;BME280;62599;49.146;10.426;2023-04-28T01:36:23;95614.59;;;8.04;83.22
74242;BME280;62599;49.146;10.426;2023-04-28T01:38:49;95617.28;;;8.04;83.06
74242;BME280;62599;49.146;10.426;2023-04-28T01:41:15;95619.78;;;8.09;82.86
74242;BME280;62599;49.146;10.426;2023-04-28T01:43:43;95610.94;;;8.09;83.23
74242;BME280;62599;49.146;10.426;2023-04-28T01:46:09;95612.56;;;8.10;82.80
74242;BME280;62599;49.146;10.426;2023-04-28T01:48:35;95614.91;;;8.11;83.10
74242;BME280;62599;49.146;10.426;2023-04-28T01:51:00;95605.44;;;8.14;83.03
74242;BME280;62599;49.146;10.426;2023-04-28T01:53:26;95596.63;;;8.13;83.40
74242;BME280;62599;49.146;10.426;2023-04-28T01:55:52;95609.38;;;8.16;83.35
74242;BME280;62599;49.146;10.426;2023-04-28T01:58:17;95600.69;;;8.19;83.17
74242;BME280;62599;49.146;10.426;2023-04-28T02:00:43;95601.94;;;8.22;82.67
74242;BME280;62599;49.146;10.426;2023-04-28T02:03:08;95600.50;;;8.33;82.62
74242;BME280;62599;49.146;10.426;2023-04-28T02:05:33;95600.84;;;8.32;82.73
74242;BME280;62599;49.146;10.426;2023-04-28T02:07:59;95596.25;;;8.32;82.98
74242;BME280;62599;49.146;10.426;2023-04-28T02:10:24;95596.09;;;8.37;82.63
74242;BME280;62599;49.146;10.426;2023-04-28T02:12:49;95592.47;;;8.33;83.18
74242;BME280;62599;49.146;10.426;2023-04-28T02:15:15;95596.25;;;8.32;83.05
74242;BME280;62599;49.146;10.426;2023-04-28T02:17:41;95594.66;;;8.31;83.75
74242;BME280;62599;49.146;10.426;2023-04-28T02:20:07;95596.09;;;8.29;83.85
74242;BME280;62599;49.146;10.426;2023-04-28T02:22:32;95596.75;;;8.26;84.43
74242;BME280;62599;49.146;10.426;2023-04-28T02:24:57;95586.16;;;8.20;85.20
74242;BME280;62599;49.146;10.426;2023-04-28T02:27:26;95576.53;;;8.19;87.48
74242;BME280;62599;49.146;10.426;2023-04-28T02:29:51;95569.75;;;8.22;87.80
74242;BME280;62599;49.146;10.426;2023-04-28T02:32:16;95577.19;;;8.25;88.08
74242;BME280;62599;49.146;10.426;2023-04-28T02:34:42;95561.06;;;8.25;87.63
74242;BME280;62599;49.146;10.426;2023-04-28T02:37:07;95561.53;;;8.27;87.58
74242;BME280;62599;49.146;10.426;2023-04-28T02:39:33;95562.66;;;8.26;87.63
74242;BME280;62599;49.146;10.426;2023-04-28T02:41:58;95556.00;;;8.24;88.22
74242;BME280;62599;49.146;10.426;2023-04-28T02:44:24;95563.75;;;8.25;88.39
74242;BME280;62599;49.146;10.426;2023-04-28T02:46:49;95547.34;;;8.18;88.84
74242;BME280;62599;49.146;10.426;2023-04-28T02:49:14;95546.72;;;8.21;88.80
74242;BME280;62599;49.146;10.426;2023-04-28T02:51:40;95553.66;;;8.22;88.75
74242;BME280;62599;49.146;10.426;2023-04-28T02:54:05;95551.28;;;8.20;89.42
74242;BME280;62599;49.146;10.426;2023-04-28T02:56:31;95546.06;;;8.24;88.86
74242;BME280;62599;49.146;10.426;2023-04-28T02:58:57;95542.16;;;8.22;89.81
74242;BME280;62599;49.146;10.426;2023-04-28T03:01:22;95537.88;;;8.20;89.43
74242;BME280;62599;49.146;10.426;2023-04-28T03:03:48;95531.09;;;8.23;88.70
74242;BME280;62599;49.146;10.426;2023-04-28T03:06:13;95531.88;;;8.24;89.13
74242;BME280;62599;49.146;10.426;2023-04-28T03:08:39;95519.56;;;8.23;89.12
74242;BME280;62599;49.146;10.426;2023-04-28T03:11:04;95512.94;;;8.20;89.34
74242;BME280;62599;49.146;10.426;2023-04-28T03:13:30;95518.63;;;8.18;89.76
74242;BME280;62599;49.146;10.426;2023-04-28T03:15:55;95512.00;;;8.16;90.46
74242;BME280;62599;49.146;10.426;2023-04-28T03:18:21;95514.25;;;8.14;91.23
74242;BME280;62599;49.146;10.426;2023-04-28T03:20:47;95505.84;;;8.15;92.07
74242;BME280;62599;49.146;10.426;2023-04-28T03:23:12;95510.44;;;8.15;92.16
74242;BME280;62599;49.146;10.426;2023-04-28T03:25:38;95500.69;;;8.10;91.96
74242;BME280;62599;49.146;10.426;2023-04-28T03:28:03;95505.84;;;8.15;91.67
74242;BME280;62599;49.146;10.426;2023-04-28T03:30:29;95521.31;;;8.18;92.07
74242;BME280;62599;49.146;10.426;2023-04-28T03:32:55;95522.09;;;8.19;92.60
74242;BME280;62599;49.146;10.426;2023-04-28T03:35:20;95525.91;;;8.18;92.35
74242;BME280;62599;49.146;10.426;2023-04-28T03:37:45;95524.00;;;8.18;93.03
74242;BME280;62599;49.146;10.426;2023-04-28T03:40:11;95516.72;;;8.19;93.32
74242;BME280;62599;49.146;10.426;2023-04-28T03:42:37;95510.59;;;8.18;93.63
74242;BME280;62599;49.146;10.426;2023-04-28T03:45:02;95506.78;;;8.19;93.63
74242;BME280;62599;49.146;10.426;2023-04-28T03:47:28;95515.31;;;8.22;93.85
74242;BME280;62599;49.146;10.426;2023-04-28T03:49:53;95515.31;;;8.22;93.87
74242;BME280;62599;49.146;10.426;2023-04-28T03:52:19;95512.31;;;8.23;93.85
74242;BME280;62599;49.146;10.426;2023-04-28T03:54:44;95511.66;;;8.26;93.72
74242;BME280;62599;49.146;10.426;2023-04-28T03:57:10;95509.47;;;8.28;93.69
74242;BME280;62599;49.146;10.426;2023-04-28T03:59:36;95505.97;;;8.28;95.71
74242;BME280;62599;49.146;10.426;2023-04-28T04:02:02;95505.66;;;8.29;95.56
74242;BME280;62599;49.146;10.426;2023-04-28T04:04:27;95509.59;;;8.32;95.33
74242;BME280;62599;49.146;10.426;2023-04-28T04:06:52;95511.19;;;8.33;95.46
74242;BME280;62599;49.146;10.426;2023-04-28T04:09:18;95513.84;;;8.33;95.04
74242;BME280;62599;49.146;10.426;2023-04-28T04:11:44;95513.53;;;8.34;95.50
74242;BME280;62599;49.146;10.426;2023-04-28T04:14:09;95507.06;;;8.35;95.22
74242;BME280;62599;49.146;10.426;2023-04-28T04:16:35;95499.50;;;8.37;95.22
74242;BME280;62599;49.146;10.426;2023-04-28T04:19:01;95496.00;;;8.37;95.80
74242;BME280;62599;49.146;10.426;2023-04-28T04:21:26;95502.19;;;8.37;95.25
74242;BME280;62599;49.146;10.426;2023-04-28T04:23:54;95496.81;;;8.37;95.48
74242;BME280;62599;49.146;10.426;2023-04-28T04:26:19;95483.69;;;8.36;95.52
74242;BME280;62599;49.146;10.426;2023-04-28T04:28:48;95488.59;;;8.42;95.44
74242;BME280;62599;49.146;10.426;2023-04-28T04:31:13;95482.91;;;8.44;95.46
74242;BME280;62599;49.146;10.426;2023-04-28T04:33:39;95478.00;;;8.46;95.79
74242;BME280;62599;49.146;10.426;2023-04-28T04:36:05;95483.53;;;8.50;95.61
74242;BME280;62599;49.146;10.426;2023-04-28T04:38:30;95487.91;;;8.54;95.66
74242;BME280;62599;49.146;10.426;2023-04-28T04:40:56;95492.66;;;8.57;94.95
74242;BME280;62599;49.146;10.426;2023-04-28T04:43:21;95499.09;;;8.56;94.80
74242;BME280;62599;49.146;10.426;2023-04-28T04:45:47;95495.00;;;8.59;95.27
74242;BME280;62599;49.146;10.426;2023-04-28T04:48:13;95495.00;;;8.59;95.33
74242;BME280;62599;49.146;10.426;2023-04-28T04:50:39;95503.03;;;8.59;95.94
74242;BME280;62599;49.146;10.426;2023-04-28T04:53:05;95495.97;;;8.54;96.58
74242;BME280;62599;49.146;10.426;2023-04-28T04:55:30;95509.06;;;8.56;97.69
74242;BME280;62599;49.146;10.426;2023-04-28T04:57:57;95502.13;;;8.55;97.41
74242;BME280;62599;49.146;10.426;2023-04-28T05:00:22;95489.81;;;8.54;97.62
74242;BME280;62599;49.146;10.426;2023-04-28T05:02:48;95486.22;;;8.50;97.69
74242;BME280;62599;49.146;10.426;2023-04-28T05:05:13;95496.94;;;8.50;100.00
74242;BME280;62599;49.146;10.426;2023-04-28T05:07:38;95496.13;;;8.49;100.00
74242;BME280;62599;49.146;10.426;2023-04-28T05:10:04;95496.47;;;8.48;100.00
74242;BME280;62599;49.146;10.426;2023-04-28T05:12:31;95497.88;;;8.45;100.00
74242;BME280;62599;49.146;10.426;2023-04-28T05:14:56;95495.53;;;8.43;100.00
74242;BME280;62599;49.146;10.426;2023-04-28T05:17:22;95497.09;;;8.44;100.00
74242;BME280;62599;49.146;10.426;2023-04-28T05:19:47;95498.03;;;8.49;100.00
74242;BME280;62599;49.146;10.426;2023-04-28T05:22:13;95487.59;;;8.56;100.00
74242;BME280;62599;49.146;10.426;2023-04-28T05:24:38;95476.00;;;8.64;100.00
74242;BME280;62599;49.146;10.426;2023-04-28T05:27:03;95478.34;;;8.74;100.00
74242;BME280;62599;49.146;10.426;2023-04-28T05:29:29;95477.03;;;8.80;100.00
74242;BME280;62599;49.146;10.426;2023-04-28T05:31:54;95483.97;;;8.81;100.00
74242;BME280;62599;49.146;10.426;2023-04-28T05:34:20;95484.63;;;8.78;100.00
74242;BME280;62599;49.146;10.426;2023-04-28T05:36:45;95482.13;;;8.73;100.00
74242;BME280;62599;49.146;10.426;2023-04-28T05:39:11;95496.53;;;8.68;100.00
74242;BME280;62599;49.146;10.426;2023-04-28T05:41:36;95493.38;;;8.66;100.00
74242;BME280;62599;49.146;10.426;2023-04-28T05:44:01;95489.44;;;8.64;100.00
74242;BME280;62599;49.146;10.426;2023-04-28T05:46:27;95488.78;;;8.67;100.00
74242;BME280;62599;49.146;10.426;2023-04-28T05:48:52;95493.53;;;8.70;100.00
74242;BME280;62599;49.146;10.426;2023-04-28T05:51:18;95490.19;;;8.73;100.00
74242;BME280;62599;49.146;10.426;2023-04-28T05:53:44;95481.34;;;8.73;100.00
74242;BME280;62599;49.146;10.426;2023-04-28T05:56:13;95476.13;;;8.76;100.00
74242;BME280;62599;49.146;10.426;2023-04-28T05:58:38;95461.13;;;8.75;100.00
74242;BME280;62599;49.146;10.426;2023-04-28T06:01:04;95462.06;;;8.79;100.00
74242;BME280;62599;49.146;10.426;2023-04-28T06:03:30;95470.88;;;8.80;100.00
74242;BME280;62599;49.146;10.426;2023-04-28T06:05:55;95469.91;;;8.84;100.00
74242;BME280;62599;49.146;10.426;2023-04-28T06:08:21;95468.13;;;8.88;100.00
74242;BME280;62599;49.146;10.426;2023-04-28T06:10:46;95462.91;;;8.92;100.00
74242;BME280;62599;49.146;10.426;2023-04-28T06:13:11;95478.50;;;8.99;100.00
74242;BME280;62599;49.146;10.426;2023-04-28T06:15:37;95481.00;;;9.04;100.00
74242;BME280;62599;49.146;10.426;2023-04-28T06:18:02;95481.59;;;9.09;100.00
74242;BME280;62599;49.146;10.426;2023-04-28T06:20:30;95473.19;;;9.11;100.00
74242;BME280;62599;49.146;10.426;2023-04-28T06:22:55;95477.94;;;9.14;100.00
74242;BME280;62599;49.146;10.426;2023-04-28T06:25:20;95474.00;;;9.11;100.00
74242;BME280;62599;49.146;10.426;2023-04-28T06:27:46;95478.78;;;9.06;100.00
74242;BME280;62599;49.146;10.426;2023-04-28T06:30:19;95470.44;;;8.99;100.00
74242;BME280;62599;49.146;10.426;2023-04-28T06:32:45;95477.38;;;9.00;100.00
74242;BME280;62599;49.146;10.426;2023-04-28T06:35:11;95478.25;;;8.91;100.00
74242;BME280;62599;49.146;10.426;2023-04-28T06:37:36;95479.66;;;8.89;100.00
74242;BME280;62599;49.146;10.426;2023-04-28T06:40:02;95484.13;;;8.85;100.00
74242;BME280;62599;49.146;10.426;2023-04-28T06:42:27;95481.94;;;8.78;100.00
74242;BME280;62599;49.146;10.426;2023-04-28T06:44:53;95477.53;;;8.74;100.00
74242;BME280;62599;49.146;10.426;2023-04-28T06:47:18;95471.88;;;8.75;100.00
74242;BME280;62599;49.146;10.426;2023-04-28T06:49:44;95470.75;;;8.76;100.00
74242;BME280;62599;49.146;10.426;2023-04-28T06:52:11;95457.59;;;8.83;100.00
74242;BME280;62599;49.146;10.426;2023-04-28T06:54:38;95454.25;;;8.86;100.00
74242;BME280;62599;49.146;10.426;2023-04-28T06:57:03;95465.31;;;8.85;100.00
74242;BME280;62599;49.146;10.426;2023-04-28T06:59:29;95456.81;;;8.83;100.00
74242;BME280;62599;49.146;10.426;2023-04-28T07:01:55;95453.78;;;8.84;100.00
74242;BME280;62599;49.146;10.426;2023-04-28T07:04:21;95459.16;;;8.84;100.00
74242;BME280;62599;49.146;10.426;2023-04-28T07:06:46;95455.69;;;8.84;100.00
74242;BME280;62599;49.146;10.426;2023-04-28T07:09:12;95453.34;;;9.03;100.00
74242;BME280;62599;49.146;10.426;2023-04-28T07:11:37;95445.16;;;9.21;100.00
74242;BME280;62599;49.146;10.426;2023-04-28T07:14:02;95448.91;;;9.28;100.00
74242;BME280;62599;49.146;10.426;2023-04-28T07:16:28;95446.19;;;9.49;100.00
74242;BME280;62599;49.146;10.426;2023-04-28T07:18:53;95457.78;;;9.62;100.00
74242;BME280;62599;49.146;10.426;2023-04-28T07:21:18;95462.31;;;9.70;100.00
74242;BME280;62599;49.146;10.426;2023-04-28T07:23:45;95464.22;;;9.70;100.00
74242;BME280;62599;49.146;10.426;2023-04-28T07:26:11;95458.25;;;9.64;100.00
74242;BME280;62599;49.146;10.426;2023-04-28T07:28:40;95469.47;;;9.66;100.00
74242;BME280;62599;49.146;10.426;2023-04-28T07:31:05;95476.28;;;9.63;100.00
74242;BME280;62599;49.146;10.426;2023-04-28T07:33:31;95480.16;;;9.54;100.00
74242;BME280;62599;49.146;10.426;2023-04-28T07:35:56;95470.97;;;9.55;100.00
74242;BME280;62599;49.146;10.426;2023-04-28T07:38:22;95471.44;;;9.57;100.00
74242;BME280;62599;49.146;10.426;2023-04-28T07:40:47;95469.66;;;9.61;100.00
74242;BME280;62599;49.146;10.426;2023-04-28T07:43:13;95470.44;;;9.61;100.00
74242;BME280;62599;49.146;10.426;2023-04-28T07:45:39;95463.63;;;9.64;100.00
74242;BME280;62599;49.146;10.426;2023-04-28T07:48:04;95470.91;;;9.63;100.00
74242;BME280;62599;49.146;10.426;2023-04-28T07:50:30;95461.41;;;9.66;100.00
74242;BME280;62599;49.146;10.426;2023-04-28T07:52:57;95457.25;;;9.69;100.00
74242;BME280;62599;49.146;10.426;2023-04-28T07:55:23;95450.75;;;9.70;100.00
74242;BME280;62599;49.146;10.426;2023-04-28T07:57:48;95439.00;;;9.74;100.00
74242;BME280;62599;49.146;10.426;2023-04-28T08:00:14;95435.84;;;9.72;100.00
74242;BME280;62599;49.146;10.426;2023-04-28T08:02:40;95428.00;;;9.67;100.00
74242;BME280;62599;49.146;10.426;2023-04-28T08:05:05;95422.50;;;9.63;100.00
74242;BME280;62599;49.146;10.426;2023-04-28T08:07:32;95423.16;;;9.60;100.00
74242;BME280;62599;49.146;10.426;2023-04-28T08:09:58;95422.44;;;9.51;100.00
74242;BME280;62599;49.146;10.426;2023-04-28T08:12:23;95425.72;;;9.57;100.00
74242;BME280;62599;49.146;10.426;2023-04-28T08:14:49;95438.50;;;9.60;100.00
74242;BME280;62599;49.146;10.426;2023-04-28T08:17:14;95432.13;;;9.64;100.00
74242;BME280;62599;49.146;10.426;2023-04-28T08:19:39;95421.84;;;9.67;100.00
74242;BME280;62599;49.146;10.426;2023-04-28T08:22:05;95428.91;;;9.71;100.00
74242;BME280;62599;49.146;10.426;2023-04-28T08:24:32;95430.47;;;9.72;100.00
74242;BME280;62599;49.146;10.426;2023-04-28T08:27:01;95435.06;;;9.72;100.00
74242;BME280;62599;49.146;10.426;2023-04-28T08:29:28;95427.59;;;9.77;100.00
74242;BME280;62599;49.146;10.426;2023-04-28T08:31:53;95425.88;;;9.73;100.00
74242;BME280;62599;49.146;10.426;2023-04-28T08:34:19;95423.91;;;9.82;100.00
74242;BME280;62599;49.146;10.426;2023-04-28T08:36:45;95419.88;;;9.88;100.00
74242;BME280;62599;49.146;10.426;2023-04-28T08:39:10;95418.44;;;10.03;100.00
74242;BME280;62599;49.146;10.426;2023-04-28T08:41:37;95409.47;;;10.11;100.00
74242;BME280;62599;49.146;10.426;2023-04-28T08:44:10;95431.13;;;10.15;100.00
74242;BME280;62599;49.146;10.426;2023-04-28T08:46:42;95438.84;;;10.16;100.00
74242;BME280;62599;49.146;10.426;2023-04-28T08:49:13;95438.47;;;10.26;100.00
74242;BME280;62599;49.146;10.426;2023-04-28T08:51:44;95439.75;;;10.20;100.00
74242;BME280;62599;49.146;10.426;2023-04-28T08:54:13;95451.41;;;10.12;100.00
74242;BME280;62599;49.146;10.426;2023-04-28T08:56:47;95456.38;;;10.10;100.00
74242;BME280;62599;49.146;10.426;2023-04-28T08:59:13;95450.97;;;10.10;100.00
74242;BME280;62599;49.146;10.426;2023-04-28T09:01:39;95448.72;;;10.12;100.00
74242;BME280;62599;49.146;10.426;2023-04-28T09:04:04;95442.25;;;10.13;100.00
74242;BME280;62599;49.146;10.426;2023-04-28T09:09:20;95439.97;;;10.03;100.00
74242;BME280;62599;49.146;10.426;2023-04-28T09:14:17;95443.88;;;9.93;100.00
74242;BME280;62599;49.146;10.426;2023-04-28T09:16:42;95430.53;;;9.97;100.00
74242;BME280;62599;49.146;10.426;2023-04-28T09:19:08;95439.19;;;10.02;100.00
74242;BME280;62599;49.146;10.426;2023-04-28T09:21:55;95428.78;;;10.13;100.00
74242;BME280;62599;49.146;10.426;2023-04-28T09:26:59;95426.16;;;10.50;100.00
74242;BME280;62599;49.146;10.426;2023-04-28T09:29:25;95413.91;;;10.65;100.00
74242;BME280;62599;49.146;10.426;2023-04-28T09:31:50;95415.75;;;10.89;100.00
74242;BME280;62599;49.146;10.426;2023-04-28T09:34:17;95433.84;;;11.00;100.00
74242;BME280;62599;49.146;10.426;2023-04-28T09:36:42;95439.09;;;11.09;100.00
74242;BME280;62599;49.146;10.426;2023-04-28T09:39:08;95434.69;;;11.17;100.00
74242;BME280;62599;49.146;10.426;2023-04-28T09:41:38;95441.06;;;11.24;100.00
74242;BME280;62599;49.146;10.426;2023-04-28T09:44:18;95432.41;;;11.31;100.00
74242;BME280;62599;49.146;10.426;2023-04-28T09:46:46;95432.50;;;11.35;100.00
74242;BME280;62599;49.146;10.426;2023-04-28T09:49:12;95431.38;;;11.36;100.00
74242;BME280;62599;49.146;10.426;2023-04-28T09:51:38;95430.78;;;11.42;100.00
74242;BME280;62599;49.146;10.426;2023-04-28T09:54:04;95423.78;;;11.53;100.00
74242;BME280;62599;49.146;10.426;2023-04-28T09:56:32;95417.53;;;11.65;100.00
74242;BME280;62599;49.146;10.426;2023-04-28T09:58:58;95424.06;;;11.92;100.00
74242;BME280;62599;49.146;10.426;2023-04-28T10:01:33;95418.63;;;12.36;100.00
74242;BME280;62599;49.146;10.426;2023-04-28T10:04:01;95414.63;;;12.46;100.00
74242;BME280;62599;49.146;10.426;2023-04-28T10:06:28;95399.06;;;12.59;100.00
74242;BME280;62599;49.146;10.426;2023-04-28T10:08:57;95403.16;;;12.68;100.00
74242;BME280;62599;49.146;10.426;2023-04-28T10:11:24;95407.66;;;12.80;99.40
74242;BME280;62599;49.146;10.426;2023-04-28T10:13:52;95409.63;;;12.64;99.73
74242;BME280;62599;49.146;10.426;2023-04-28T10:16:18;95404.75;;;12.89;100.00
74242;BME280;62599;49.146;10.426;2023-04-28T10:18:44;95410.50;;;13.22;99.02
74242;BME280;62599;49.146;10.426;2023-04-28T10:21:11;95404.00;;;13.23;97.63
74242;BME280;62599;49.146;10.426;2023-04-28T10:26:17;95398.72;;;13.31;96.01
74242;BME280;62599;49.146;10.426;2023-04-28T10:28:48;95412.25;;;13.50;96.75
74242;BME280;62599;49.146;10.426;2023-04-28T10:31:18;95390.88;;;13.64;94.53
74242;BME280;62599;49.146;10.426;2023-04-28T10:33:48;95398.94;;;14.03;95.68
74242;BME280;62599;49.146;10.426;2023-04-28T10:36:45;95405.44;;;14.21;90.93
74242;BME280;62599;49.146;10.426;2023-04-28T10:39:11;95396.34;;;14.10;91.38
74242;BME280;62599;49.146;10.426;2023-04-28T10:41:37;95394.22;;;14.00;92.33
74242;BME280;62599;49.146;10.426;2023-04-28T10:47:01;95400.31;;;13.93;92.15
74242;BME280;62599;49.146;10.426;2023-04-28T11:00:47;95402.47;;;13.84;95.54
74242;BME280;62599;49.146;10.426;2023-04-28T11:06:21;95396.81;;;13.93;97.04
74242;BME280;62599;49.146;10.426;2023-04-28T11:11:34;95397.03;;;14.50;96.13
74242;BME280;62599;49.146;10.426;2023-04-28T11:16:57;95404.53;;;14.86;91.50
74242;BME280;62599;49.146;10.426;2023-04-28T11:19:41;95406.78;;;14.81;90.34
74242;BME280;62599;49.146;10.426;2023-04-28T11:22:20;95408.50;;;14.43;91.84
74242;BME280;62599;49.146;10.426;2023-04-28T11:24:58;95413.63;;;14.25;93.90
74242;BME280;62599;49.146;10.426;2023-04-28T11:27:29;95406.72;;;14.28;95.79
74242;BME280;62599;49.146;10.426;2023-04-28T11:29:55;95412.06;;;14.24;94.04
74242;BME280;62599;49.146;10.426;2023-04-28T11:32:30;95416.59;;;14.16;94.14
74242;BME280;62599;49.146;10.426;2023-04-28T11:34:56;95413.44;;;14.14;92.87
74242;BME280;62599;49.146;10.426;2023-04-28T11:37:22;95415.84;;;13.96;94.36
74242;BME280;62599;49.146;10.426;2023-04-28T11:39:48;95419.19;;;13.90;95.18
74242;BME280;62599;49.146;10.426;2023-04-28T11:42:13;95422.34;;;13.92;96.39
74242;BME280;62599;49.146;10.426;2023-04-28T11:44:39;95419.97;;;13.90;97.67
74242;BME280;62599;49.146;10.426;2023-04-28T11:47:05;95428.13;;;13.71;99.33
74242;BME280;62599;49.146;10.426;2023-04-28T11:49:41;95411.25;;;13.58;100.00
74242;BME280;62599;49.146;10.426;2023-04-28T11:52:07;95418.78;;;13.68;100.00
74242;BME280;62599;49.146;10.426;2023-04-28T11:54:33;95420.66;;;13.84;100.00
74242;BME280;62599;49.146;10.426;2023-04-28T11:56:59;95411.31;;;14.04;100.00
74242;BME280;62599;49.146;10.426;2023-04-28T11:59:34;95415.06;;;14.19;100.00
74242;BME280;62599;49.146;10.426;2023-04-28T12:02:06;95408.69;;;14.31;98.96
74242;BME280;62599;49.146;10.426;2023-04-28T12:04:42;95416.22;;;14.18;99.02
74242;BME280;62599;49.146;10.426;2023-04-28T12:07:16;95417.81;;;14.00;100.00
74242;BME280;62599;49.146;10.426;2023-04-28T12:09:46;95406.28;;;14.03;100.00
74242;BME280;62599;49.146;10.426;2023-04-28T12:12:27;95407.72;;;14.19;100.00
74242;BME280;62599;49.146;10.426;2023-04-28T12:14:58;95414.41;;;14.26;100.00
74242;BME280;62599;49.146;10.426;2023-04-28T12:17:33;95416.53;;;14.13;100.00
74242;BME280;62599;49.146;10.426;2023-04-28T12:20:07;95406.50;;;13.94;100.00
74242;BME280;62599;49.146;10.426;2023-04-28T12:22:49;95411.72;;;13.83;100.00
74242;BME280;62599;49.146;10.426;2023-04-28T12:25:18;95416.38;;;13.63;100.00
74242;BME280;62599;49.146;10.426;2023-04-28T12:28:20;95419.81;;;13.41;100.00
74242;BME280;62599;49.146;10.426;2023-04-28T12:30:45;95416.50;;;13.32;100.00
74242;BME280;62599;49.146;10.426;2023-04-28T12:33:25;95422.75;;;13.16;100.00
74242;BME280;62599;49.146;10.426;2023-04-28T12:35:52;95419.47;;;13.07;100.00
74242;BME280;62599;49.146;10.426;2023-04-28T12:38:24;95418.16;;;13.01;100.00
74242;BME280;62599;49.146;10.426;2023-04-28T12:40:53;95415.22;;;12.90;100.00
74242;BME280;62599;49.146;10.426;2023-04-28T12:43:20;95408.81;;;12.79;100.00
74242;BME280;62599;49.146;10.426;2023-04-28T12:45:52;95413.84;;;12.81;100.00
74242;BME280;62599;49.146;10.426;2023-04-28T12:48:19;95406.81;;;12.76;100.00
74242;BME280;62599;49.146;10.426;2023-04-28T12:50:45;95393.78;;;12.82;100.00
74242;BME280;62599;49.146;10.426;2023-04-28T12:53:19;95403.28;;;12.91;100.00
74242;BME280;62599;49.146;10.426;2023-04-28T12:55:46;95407.53;;;12.92;100.00
74242;BME280;62599;49.146;10.426;2023-04-28T12:58:11;95409.47;;;12.92;100.00
74242;BME280;62599;49.146;10.426;2023-04-28T13:00:37;95410.00;;;12.82;100.00
74242;BME280;62599;49.146;10.426;2023-04-28T13:03:03;95427.28;;;12.77;100.00
74242;BME280;62599;49.146;10.426;2023-04-28T13:05:28;95426.63;;;12.64;100.00
74242;BME280;62599;49.146;10.426;2023-04-28T13:07:58;95425.75;;;12.60;100.00
74242;BME280;62599;49.146;10.426;2023-04-28T13:10:24;95420.84;;;12.66;100.00
74242;BME280;62599;49.146;10.426;2023-04-28T13:12:50;95405.16;;;12.71;100.00
74242;BME280;62599;49.146;10.426;2023-04-28T13:15:16;95407.59;;;12.76;100.00
74242;BME280;62599;49.146;10.426;2023-04-28T13:17:44;95410.28;;;12.76;100.00
74242;BME280;62599;49.146;10.426;2023-04-28T13:20:10;95406.09;;;12.79;100.00
74242;BME280;62599;49.146;10.426;2023-04-28T13:22:36;95416.56;;;12.81;100.00
74242;BME280;62599;49.146;10.426;2023-04-28T13:25:02;95417.53;;;12.72;100.00